Time;durP1;ratioP1;P1;durP2;ratioP2;P2;SDS_P1;SDS_P2;PMS_P1;PMS_P2;Temp;Humidity;BMP_temperature;BMP_pressure;BME280_temperature;BME280_humidity;BME280_pressure;Samples;Min_cycle;Max_cycle;Signal;HPM_P1;HPM_P2
2023/04/09 00:02:26;;;;;;;;;;;;;;;6.34;68.06;93102.66;2054735;70;20474;-73
2023/04/09 00:04:52;;;;;;;;;;;;;;;6.29;67.81;93106.44;2054490;70;20109;-80
2023/04/09 00:07:23;;;;;;;;;;;;;;;6.19;68.67;93102.06;2050467;70;20043;-83
2023/04/09 00:09:52;;;;;;;;;;;;;;;6.26;67.86;93099.16;2051329;70;20145;-83
2023/04/09 00:12:18;;;;;;;;;;;;;;;6.28;67.86;93096.56;2055250;70;20141;-84
2023/04/09 00:14:44;;;;;;;;;;;;;;;6.32;68.04;93091.31;2054609;70;20449;-82
2023/04/09 00:17:12;;;;;;;;;;;;;;;6.26;68.29;93099.16;2054657;70;20054;-79
2023/04/09 00:19:37;;;;;;;;;;;;;;;6.32;67.48;93094.09;2054751;70;20066;-79
2023/04/09 00:22:03;;;;;;;;;;;;;;;6.30;67.97;93095.97;2035752;70;20054;-81
2023/04/09 00:24:29;;;;;;;;;;;;;;;6.30;67.33;93090.38;2054603;70;20117;-83
2023/04/09 00:26:55;;;;;;;;;;;;;;;6.33;67.43;93089.97;2035700;70;20054;-78
2023/04/09 00:32:32;;;;;;;;;;;;;;;6.14;67.71;93083.44;2055949;70;20061;-73
2023/04/09 00:34:57;;;;;;;;;;;;;;;5.82;68.56;93082.97;2056393;70;20050;-80
2023/04/09 00:37:23;;;;;;;;;;;;;;;5.86;69.58;93082.53;2053919;70;20050;-76
2023/04/09 00:39:48;;;;;;;;;;;;;;;6.15;68.29;93082.16;2056930;70;20046;-83
2023/04/09 00:42:15;;;;;;;;;;;;;;;6.23;68.30;93088.38;2053166;70;20065;-83
2023/04/09 00:44:41;;;;;;;;;;;;;;;6.31;66.98;93087.00;2054668;70;20555;-79
2023/04/09 00:47:07;;;;;;;;;;;;;;;6.38;67.27;93093.13;2052534;70;20090;-81
2023/04/09 00:50:06;;;;;;;;;;;;;;;6.32;67.33;93087.75;2056484;70;20168;-80
2023/04/09 00:52:32;;;;;;;;;;;;;;;6.35;67.47;93086.59;2054809;70;20460;-83
2023/04/09 00:55:02;;;;;;;;;;;;;;;6.31;68.36;93083.47;2055107;70;20109;-81
2023/04/09 00:57:36;;;;;;;;;;;;;;;6.36;67.27;93085.28;2054771;70;20067;-83
2023/04/09 01:00:05;;;;;;;;;;;;;;;6.37;67.17;93084.00;2053802;70;20540;-82
2023/04/09 01:02:31;;;;;;;;;;;;;;;6.29;67.44;93083.31;2047876;70;20541;-76
2023/04/09 01:04:57;;;;;;;;;;;;;;;6.35;66.77;93092.94;2050646;70;20066;-83
2023/04/09 01:10:46;;;;;;;;;;;;;;;6.24;67.11;93089.91;2053438;69;20082;-80
2023/04/09 01:13:15;;;;;;;;;;;;;;;6.01;68.11;93090.09;2054103;70;20054;-78
2023/04/09 01:15:55;;;;;;;;;;;;;;;5.84;69.72;93091.50;2051293;70;20065;-81
2023/04/09 01:18:27;;;;;;;;;;;;;;;6.13;67.95;93082.72;2054582;70;20508;-80
2023/04/09 01:21:01;;;;;;;;;;;;;;;6.25;68.12;93091.38;2054930;70;20046;-84
2023/04/09 01:23:45;;;;;;;;;;;;;;;6.24;67.48;93087.84;2051890;70;20573;-81
2023/04/09 01:32:31;;;;;;;;;;;;;;;6.15;67.50;93091.28;2062970;69;20044;-82
2023/04/09 01:35:00;;;;;;;;;;;;;;;6.26;66.82;93095.63;2062757;69;20504;-85
2023/04/09 01:40:32;;;;;;;;;;;;;;;6.14;66.94;93091.81;2062568;69;20042;-85
2023/04/09 01:46:34;;;;;;;;;;;;;;;5.85;69.01;93101.34;2062284;69;20149;-82
2023/04/09 01:49:01;;;;;;;;;;;;;;;6.07;67.78;93099.72;2062121;69;20044;-82
2023/04/09 01:51:28;;;;;;;;;;;;;;;5.50;69.86;93096.97;2062334;69;20466;-74
2023/04/09 01:53:54;;;;;;;;;;;;;;;5.65;69.37;93098.91;2058929;69;20042;-78
2023/04/09 01:56:20;;;;;;;;;;;;;;;5.94;68.75;93102.06;2058796;69;20141;-81
2023/04/09 01:59:06;;;;;;;;;;;;;;;5.87;68.12;93109.19;2061849;69;20145;-75
2023/04/09 02:01:50;;;;;;;;;;;;;;;5.85;68.19;93106.19;2062327;69;20068;-80
2023/04/09 02:04:34;;;;;;;;;;;;;;;6.01;67.39;93104.06;2059014;69;20042;-83
2023/04/09 02:10:31;;;;;;;;;;;;;;;5.56;70.11;93106.59;2062258;69;20044;-84
2023/04/09 02:13:03;;;;;;;;;;;;;;;5.77;69.60;93105.50;2062136;69;20497;-84
2023/04/09 02:15:35;;;;;;;;;;;;;;;5.33;71.82;93101.16;2062016;69;20477;-81
2023/04/09 02:18:01;;;;;;;;;;;;;;;5.49;71.05;93101.06;2058827;69;20042;-78
2023/04/09 02:20:27;;;;;;;;;;;;;;;5.68;69.94;93103.34;2062353;69;20141;-85
2023/04/09 02:22:57;;;;;;;;;;;;;;;5.78;69.91;93104.97;2062306;69;20053;-83
2023/04/09 02:28:45;;;;;;;;;;;;;;;6.03;69.02;93112.63;2059157;64;20050;-76
2023/04/09 02:31:11;;;;;;;;;;;;;;;6.01;69.45;93104.06;2055207;69;20078;-78
2023/04/09 02:37:06;;;;;;;;;;;;;;;5.34;72.39;93110.28;2052917;69;20508;-74
2023/04/09 02:39:32;;;;;;;;;;;;;;;5.29;73.24;93114.75;2058290;69;20054;-77
2023/04/09 02:41:58;;;;;;;;;;;;;;;5.22;73.70;93109.97;2058324;69;20057;-74
2023/04/09 02:44:25;;;;;;;;;;;;;;;5.65;71.65;93107.28;2055108;69;20050;-77
2023/04/09 02:50:20;;;;;;;;;;;;;;;5.56;72.14;93112.19;2058598;69;20048;-77
2023/04/09 02:56:18;;;;;;;;;;;;;;;5.28;72.97;93106.97;2058600;69;20109;-79
2023/04/09 02:58:43;;;;;;;;;;;;;;;5.32;72.73;93101.72;2058244;69;20496;-82
2023/04/09 03:01:09;;;;;;;;;;;;;;;5.53;72.61;93098.63;2054705;69;20130;-84
2023/04/09 03:03:37;;;;;;;;;;;;;;;5.45;72.62;93107.06;2058657;69;20148;-84
2023/04/09 03:06:05;;;;;;;;;;;;;;;5.35;72.64;93095.75;2055498;69;20085;-80
2023/04/09 03:12:00;;;;;;;;;;;;;;;5.27;74.11;93100.66;2058036;69;20057;-83
2023/04/09 03:14:32;;;;;;;;;;;;;;;5.32;73.22;93094.09;2058411;69;20054;-82
2023/04/09 03:16:58;;;;;;;;;;;;;;;5.08;75.18;93095.50;2058716;69;20058;-81
2023/04/09 03:19:27;;;;;;;;;;;;;;;5.30;73.90;93093.91;2058396;69;20054;-82
2023/04/09 03:25:21;;;;;;;;;;;;;;;5.48;72.30;93091.19;2058308;69;20040;-82
2023/04/09 03:27:52;;;;;;;;;;;;;;;5.46;72.50;93089.00;2055158;69;20080;-80
2023/04/09 03:30:31;;;;;;;;;;;;;;;5.30;72.47;93090.38;2054923;69;20082;-79
2023/04/09 03:32:59;;;;;;;;;;;;;;;5.19;73.71;93097.16;2058310;69;20062;-73
2023/04/09 03:35:28;;;;;;;;;;;;;;;5.37;72.87;93097.97;2054953;69;20046;-82
2023/04/09 03:37:58;;;;;;;;;;;;;;;5.55;72.22;93102.31;2058173;69;20062;-83
2023/04/09 03:44:00;;;;;;;;;;;;;;;5.34;72.50;93108.22;2058801;69;20049;-80
2023/04/09 03:46:36;;;;;;;;;;;;;;;5.06;73.20;93098.13;2058498;69;20109;-83
2023/04/09 03:49:08;;;;;;;;;;;;;;;4.84;74.72;93102.50;2055257;69;20146;-83
2023/04/09 03:51:43;;;;;;;;;;;;;;;4.91;74.50;93103.78;2051146;70;20534;-83
2023/04/09 03:54:09;;;;;;;;;;;;;;;4.63;75.91;93099.25;2050911;69;20052;-80
2023/04/09 03:56:37;;;;;;;;;;;;;;;4.72;75.91;93103.47;2054044;69;20050;-81
2023/04/09 03:59:06;;;;;;;;;;;;;;;4.77;76.42;93105.34;2054848;69;20058;-78
2023/04/09 04:01:41;;;;;;;;;;;;;;;4.91;75.51;93103.06;2054960;69;20050;-83
2023/04/09 04:04:08;;;;;;;;;;;;;;;4.69;75.35;93097.00;2054916;69;20082;-80
2023/04/09 04:06:49;;;;;;;;;;;;;;;4.80;74.62;93099.34;2058484;69;20050;-83
2023/04/09 04:09:33;;;;;;;;;;;;;;;4.95;73.82;93103.38;2058626;69;20054;-84
2023/04/09 04:12:18;;;;;;;;;;;;;;;5.32;72.50;93104.53;2058020;69;20060;-78
2023/04/09 04:14:59;;;;;;;;;;;;;;;5.18;72.44;93100.50;2055094;69;20116;-78
2023/04/09 04:17:32;;;;;;;;;;;;;;;5.33;72.51;93095.56;2052352;69;20084;-80
2023/04/09 04:19:59;;;;;;;;;;;;;;;5.26;72.32;93096.34;2055428;69;20054;-79
2023/04/09 04:22:25;;;;;;;;;;;;;;;5.26;72.55;93098.41;2056372;69;20061;-83
2023/04/09 04:28:22;;;;;;;;;;;;;;;5.13;72.85;93096.59;2058355;69;20081;-82
2023/04/09 04:30:48;;;;;;;;;;;;;;;5.12;73.45;93097.19;2055566;69;20042;-83
2023/04/09 04:33:16;;;;;;;;;;;;;;;5.12;72.74;93105.56;2058769;69;20080;-84
2023/04/09 04:35:48;;;;;;;;;;;;;;;5.07;73.26;93099.63;2059303;69;20057;-84
2023/04/09 04:38:34;;;;;;;;;;;;;;;4.97;73.75;93109.91;2055994;69;20137;-80
2023/04/09 04:41:04;;;;;;;;;;;;;;;5.05;72.45;93107.09;2055443;69;20120;-83
2023/04/09 04:43:32;;;;;;;;;;;;;;;5.46;70.79;93116.19;2055412;69;20089;-84
2023/04/09 04:45:58;;;;;;;;;;;;;;;5.21;71.39;93114.06;2058817;69;20057;-83
2023/04/09 04:48:27;;;;;;;;;;;;;;;5.18;72.25;93115.22;2055676;69;20134;-84
2023/04/09 04:50:57;;;;;;;;;;;;;;;4.82;72.86;93121.88;2058858;69;20203;-81
2023/04/09 04:53:24;;;;;;;;;;;;;;;5.26;72.46;93123.53;2055324;69;20046;-82
2023/04/09 04:55:52;;;;;;;;;;;;;;;5.03;72.96;93123.63;2055119;69;20172;-84
2023/04/09 04:58:22;;;;;;;;;;;;;;;4.85;73.16;93125.56;2055114;69;20065;-82
2023/04/09 05:00:52;;;;;;;;;;;;;;;4.70;73.11;93126.38;2055001;69;20081;-84
2023/04/09 05:03:18;;;;;;;;;;;;;;;4.74;73.78;93132.31;2054959;69;20119;-84
2023/04/09 05:05:57;;;;;;;;;;;;;;;4.67;74.66;93135.09;2054971;69;20058;-84
2023/04/09 05:08:42;;;;;;;;;;;;;;;4.53;74.02;93126.22;2051011;70;20043;-85
2023/04/09 05:11:10;;;;;;;;;;;;;;;4.49;75.28;93134.22;2051001;70;20054;-83
2023/04/09 05:13:36;;;;;;;;;;;;;;;4.58;75.32;93133.63;2048199;70;20158;-83
2023/04/09 05:16:06;;;;;;;;;;;;;;;5.08;72.78;93136.63;2050873;70;20059;-84
2023/04/09 05:18:32;;;;;;;;;;;;;;;4.64;73.77;93131.41;2048236;70;20053;-77
2023/04/09 05:20:58;;;;;;;;;;;;;;;4.91;72.49;93134.50;2051001;70;20522;-76
2023/04/09 05:23:26;;;;;;;;;;;;;;;4.71;73.92;93127.84;2048406;70;20136;-78
2023/04/09 05:25:53;;;;;;;;;;;;;;;4.81;72.75;93131.53;2048228;70;20082;-77
2023/04/09 05:28:30;;;;;;;;;;;;;;;5.02;72.51;93133.31;2048048;70;20141;-81
2023/04/09 05:31:11;;;;;;;;;;;;;;;5.10;72.55;93131.97;2048443;70;20047;-81
2023/04/09 05:37:09;;;;;;;;;;;;;;;5.09;71.63;93132.56;2056837;70;20086;-75
2023/04/09 05:39:35;;;;;;;;;;;;;;;4.69;72.75;93141.63;2060424;69;20042;-80
2023/04/09 05:42:01;;;;;;;;;;;;;;;4.89;72.17;93141.91;2057990;69;20367;-73
2023/04/09 05:47:59;;;;;;;;;;;;;;;5.49;69.65;93152.06;2058205;69;20149;-83
2023/04/09 05:50:28;;;;;;;;;;;;;;;4.65;72.28;93152.41;2052490;69;20213;-82
2023/04/09 05:52:54;;;;;;;;;;;;;;;4.78;72.58;93154.97;2057674;69;20053;-72
2023/04/09 05:55:24;;;;;;;;;;;;;;;4.97;72.63;93156.59;2054730;69;20429;-78
2023/04/09 05:57:54;;;;;;;;;;;;;;;5.39;70.32;93153.25;2052188;69;20050;-76
2023/04/09 06:00:20;;;;;;;;;;;;;;;5.26;70.38;93162.59;2057760;69;20064;-81
2023/04/09 06:02:47;;;;;;;;;;;;;;;5.28;70.29;93162.81;2058162;69;20394;-81
2023/04/09 06:05:13;;;;;;;;;;;;;;;5.06;72.23;93161.59;2054777;69;20050;-80
2023/04/09 06:07:38;;;;;;;;;;;;;;;4.88;71.15;93171.13;2054784;69;20481;-83
2023/04/09 06:10:04;;;;;;;;;;;;;;;4.72;72.78;93167.63;2058129;69;20053;-80
2023/04/09 06:12:29;;;;;;;;;;;;;;;5.39;71.11;93161.63;2057932;69;20129;-76
2023/04/09 06:14:55;;;;;;;;;;;;;;;5.74;69.69;93171.66;2054442;69;20053;-76
2023/04/09 06:17:20;;;;;;;;;;;;;;;5.35;69.67;93164.78;2054719;69;20057;-80
2023/04/09 06:19:46;;;;;;;;;;;;;;;5.75;69.40;93170.34;2058048;69;20046;-76
2023/04/09 06:22:11;;;;;;;;;;;;;;;5.53;69.39;93168.44;2058101;69;20062;-74
2023/04/09 06:28:05;;;;;;;;;;;;;;;5.60;69.67;93171.19;2058029;69;20106;-74
2023/04/09 06:30:30;;;;;;;;;;;;;;;5.82;68.94;93171.63;2058086;69;20054;-75
2023/04/09 06:32:56;;;;;;;;;;;;;;;6.13;67.50;93168.63;2057930;69;20050;-80
2023/04/09 06:35:22;;;;;;;;;;;;;;;6.34;66.44;93166.22;2058123;69;20080;-74
2023/04/09 06:37:47;;;;;;;;;;;;;;;6.48;67.18;93163.88;2057974;69;20133;-81
2023/04/09 06:40:13;;;;;;;;;;;;;;;6.57;66.68;93166.03;2057731;69;20490;-79
2023/04/09 06:42:38;;;;;;;;;;;;;;;6.00;66.82;93164.06;2057598;69;20137;-73
2023/04/09 06:45:13;;;;;;;;;;;;;;;6.62;65.94;93171.38;2054842;69;20449;-76
2023/04/09 06:47:39;;;;;;;;;;;;;;;6.60;66.41;93171.22;2059082;69;20049;-81
2023/04/09 06:50:05;;;;;;;;;;;;;;;6.96;65.17;93175.50;2057970;69;20502;-82
2023/04/09 06:52:30;;;;;;;;;;;;;;;7.12;64.57;93182.44;2057656;69;20069;-82
2023/04/09 06:54:56;;;;;;;;;;;;;;;7.01;65.16;93191.31;2057778;69;20050;-79
2023/04/09 06:57:21;;;;;;;;;;;;;;;7.10;64.64;93185.06;2058079;69;20074;-78
2023/04/09 06:59:47;;;;;;;;;;;;;;;6.45;65.38;93184.59;2058002;69;20053;-77
2023/04/09 07:02:14;;;;;;;;;;;;;;;6.68;64.58;93195.56;2058103;69;20509;-77
2023/04/09 07:04:40;;;;;;;;;;;;;;;7.15;64.16;93188.94;2057968;69;20513;-78
2023/04/09 07:07:05;;;;;;;;;;;;;;;6.83;64.55;93189.84;2057992;69;20186;-75
2023/04/09 07:09:31;;;;;;;;;;;;;;;7.28;62.89;93190.63;2054976;69;20074;-75
2023/04/09 07:11:56;;;;;;;;;;;;;;;7.17;63.12;93194.69;2054678;69;20056;-76
2023/04/09 07:14:22;;;;;;;;;;;;;;;7.08;62.35;93193.28;2058105;69;20045;-74
2023/04/09 07:16:47;;;;;;;;;;;;;;;7.38;62.94;93197.81;2057835;69;20042;-81
2023/04/09 07:22:41;;;;;;;;;;;;;;;7.38;62.52;93197.06;2059650;69;20049;-75
2023/04/09 07:28:35;;;;;;;;;;;;;;;6.61;65.54;93199.94;2056601;69;20635;-72
2023/04/09 07:31:03;;;;;;;;;;;;;;;7.11;63.17;93197.00;2058070;69;20173;-72
2023/04/09 07:33:29;;;;;;;;;;;;;;;6.22;64.79;93199.47;2058180;69;20050;-75
2023/04/09 07:35:55;;;;;;;;;;;;;;;7.02;63.26;93194.88;2058027;69;20101;-76
2023/04/09 07:38:21;;;;;;;;;;;;;;;7.67;61.52;93205.69;2058031;69;20052;-77
2023/04/09 07:40:46;;;;;;;;;;;;;;;6.79;61.78;93190.25;2057956;69;20116;-75
2023/04/09 07:43:11;;;;;;;;;;;;;;;6.34;64.96;93205.38;2057980;69;20128;-78
2023/04/09 07:45:37;;;;;;;;;;;;;;;7.34;63.12;93207.94;2057893;69;20081;-78
2023/04/09 07:48:02;;;;;;;;;;;;;;;7.61;61.62;93200.34;2057938;69;20058;-80
2023/04/09 07:50:28;;;;;;;;;;;;;;;8.03;59.64;93205.00;2058052;69;20046;-72
2023/04/09 07:52:54;;;;;;;;;;;;;;;7.46;60.69;93211.72;2058018;69;20046;-72
2023/04/09 07:55:19;;;;;;;;;;;;;;;7.40;60.60;93211.22;2057860;69;20080;-73
2023/04/09 07:57:45;;;;;;;;;;;;;;;8.07;59.59;93208.13;2054688;69;20481;-74
2023/04/09 08:00:11;;;;;;;;;;;;;;;8.19;58.77;93201.97;2058462;69;20398;-73
2023/04/09 08:02:39;;;;;;;;;;;;;;;8.13;58.54;93211.38;2057939;69;20050;-73
2023/04/09 08:05:06;;;;;;;;;;;;;;;8.87;56.38;93214.91;2058513;69;20046;-74
2023/04/09 08:07:32;;;;;;;;;;;;;;;9.02;56.49;93202.69;2058466;69;20189;-73
2023/04/09 08:09:57;;;;;;;;;;;;;;;9.55;56.56;93209.38;2055124;69;20401;-73
2023/04/09 08:12:23;;;;;;;;;;;;;;;8.95;55.72;93208.44;2058392;69;20141;-76
2023/04/09 08:14:48;;;;;;;;;;;;;;;9.34;55.03;93207.13;2058377;69;20132;-77
2023/04/09 08:17:14;;;;;;;;;;;;;;;9.14;55.41;93211.28;2058557;69;20072;-75
2023/04/09 08:19:39;;;;;;;;;;;;;;;8.55;56.48;93209.66;2058347;69;20057;-78
2023/04/09 08:22:05;;;;;;;;;;;;;;;8.09;57.04;93210.34;2058356;69;20092;-74
2023/04/09 08:24:31;;;;;;;;;;;;;;;9.22;55.12;93211.88;2058412;69;20112;-73
2023/04/09 08:26:56;;;;;;;;;;;;;;;9.94;53.33;93203.69;2055059;69;20054;-73
2023/04/09 08:29:22;;;;;;;;;;;;;;;9.05;54.53;93206.38;2058415;69;20509;-73
2023/04/09 08:31:47;;;;;;;;;;;;;;;8.73;55.09;93213.84;2058285;69;20080;-75
2023/04/09 08:34:14;;;;;;;;;;;;;;;9.61;54.97;93209.06;2058525;69;20430;-74
2023/04/09 08:40:08;;;;;;;;;;;;;;;9.87;52.79;93199.72;2058400;69;20535;-75
2023/04/09 08:42:34;;;;;;;;;;;;;;;10.27;52.29;93209.56;2058375;69;20059;-74
2023/04/09 08:45:02;;;;;;;;;;;;;;;10.05;52.48;93203.06;2058246;69;20053;-74
2023/04/09 08:47:28;;;;;;;;;;;;;;;9.64;52.22;93199.44;2055096;69;20486;-73
2023/04/09 08:49:53;;;;;;;;;;;;;;;9.39;53.46;93197.69;2058325;69;20050;-74
2023/04/09 08:52:29;;;;;;;;;;;;;;;9.56;52.33;93199.59;2058359;69;20054;-76
2023/04/09 08:54:55;;;;;;;;;;;;;;;9.54;53.28;93209.97;2058469;69;20046;-74
2023/04/09 08:57:20;;;;;;;;;;;;;;;9.89;51.87;93205.47;2058452;69;20078;-77
2023/04/09 08:59:46;;;;;;;;;;;;;;;9.12;53.67;93200.63;2058320;69;20049;-76
2023/04/09 09:02:12;;;;;;;;;;;;;;;9.62;52.36;93190.84;2058339;69;20477;-75
2023/04/09 09:04:48;;;;;;;;;;;;;;;9.91;52.12;93194.38;2058505;69;20141;-77
2023/04/09 09:07:15;;;;;;;;;;;;;;;10.33;50.85;93195.16;2058613;69;20422;-78
2023/04/09 09:09:51;;;;;;;;;;;;;;;10.35;50.86;93187.59;2058544;69;20042;-75
2023/04/09 09:12:33;;;;;;;;;;;;;;;10.11;50.26;93188.69;2058359;69;20137;-76
2023/04/09 09:14:59;;;;;;;;;;;;;;;10.93;48.94;93189.41;2058745;69;20052;-73
2023/04/09 09:17:25;;;;;;;;;;;;;;;10.96;49.36;93193.09;2059836;69;20137;-73
2023/04/09 09:19:50;;;;;;;;;;;;;;;11.19;48.48;93193.97;2059035;69;20084;-76
2023/04/09 09:22:16;;;;;;;;;;;;;;;11.71;48.05;93187.47;2058604;69;20053;-73
2023/04/09 09:24:47;;;;;;;;;;;;;;;12.50;48.56;93182.53;2058474;69;20066;-76
2023/04/09 09:27:29;;;;;;;;;;;;;;;12.57;46.52;93181.56;2058441;69;20530;-77
2023/04/09 09:29:56;;;;;;;;;;;;;;;12.98;47.64;93187.56;2058228;69;20050;-77
2023/04/09 09:32:22;;;;;;;;;;;;;;;13.92;44.53;93180.94;2058413;69;20141;-77
2023/04/09 09:34:56;;;;;;;;;;;;;;;15.07;45.20;93184.97;2058631;69;20062;-77
2023/04/09 09:37:26;;;;;;;;;;;;;;;15.33;40.36;93183.50;2058407;69;20069;-75
2023/04/09 09:39:51;;;;;;;;;;;;;;;15.96;39.64;93172.47;2055360;69;20138;-76
2023/04/09 09:42:17;;;;;;;;;;;;;;;16.54;37.59;93170.22;2059497;69;20223;-73
2023/04/09 09:44:42;;;;;;;;;;;;;;;16.93;37.00;93169.13;2059561;69;20417;-73
2023/04/09 09:50:40;;;;;;;;;;;;;;;17.80;35.93;93169.34;2058336;69;20138;-76
2023/04/09 09:53:08;;;;;;;;;;;;;;;17.75;35.27;93170.56;2058238;69;20141;-75
2023/04/09 09:55:37;;;;;;;;;;;;;;;17.56;34.36;93169.03;2058250;69;20050;-75
2023/04/09 09:58:10;;;;;;;;;;;;;;;18.37;35.11;93163.09;2058237;69;20070;-75
2023/04/09 10:00:38;;;;;;;;;;;;;;;16.89;32.38;93164.00;2058128;69;20049;-74
2023/04/09 10:03:09;;;;;;;;;;;;;;;18.35;33.07;93160.16;2058185;69;20045;-73
2023/04/09 10:05:37;;;;;;;;;;;;;;;19.35;31.99;93154.63;2058414;69;20061;-75
2023/04/09 10:08:03;;;;;;;;;;;;;;;18.85;31.13;93154.97;2058010;69;20138;-75
2023/04/09 10:10:29;;;;;;;;;;;;;;;20.27;31.44;93158.47;2058131;69;20482;-75
2023/04/09 10:12:56;;;;;;;;;;;;;;;20.23;28.77;93146.88;2058057;69;20054;-74
2023/04/09 10:15:22;;;;;;;;;;;;;;;20.99;29.25;93155.69;2058066;69;20073;-74
2023/04/09 10:17:47;;;;;;;;;;;;;;;20.77;27.53;93150.75;2058144;69;20498;-75
2023/04/09 10:20:15;;;;;;;;;;;;;;;21.93;27.91;93152.53;2057965;69;20054;-74
2023/04/09 10:22:43;;;;;;;;;;;;;;;22.88;26.98;93150.53;2058066;69;20140;-74
2023/04/09 10:25:09;;;;;;;;;;;;;;;23.27;25.28;93154.97;2058147;69;20080;-74
2023/04/09 10:27:35;;;;;;;;;;;;;;;21.32;23.66;93145.91;2058035;69;20430;-75
2023/04/09 10:30:00;;;;;;;;;;;;;;;20.72;23.97;93151.31;2058165;69;20046;-75
2023/04/09 10:32:26;;;;;;;;;;;;;;;22.06;24.52;93134.97;2058084;69;20065;-73
2023/04/09 10:34:56;;;;;;;;;;;;;;;22.94;23.22;93134.19;2058130;69;20072;-72
2023/04/09 10:37:22;;;;;;;;;;;;;;;24.14;21.93;93137.94;2058012;69;20507;-73
2023/04/09 10:39:49;;;;;;;;;;;;;;;22.59;22.17;93138.41;2058063;69;20148;-74
2023/04/09 10:42:23;;;;;;;;;;;;;;;23.44;20.63;93139.50;2058038;69;20057;-75
2023/04/09 10:45:09;;;;;;;;;;;;;;;25.45;20.10;93134.88;2058010;69;20089;-74
2023/04/09 10:47:36;;;;;;;;;;;;;;;27.73;19.27;93139.63;2057948;69;20045;-76
2023/04/09 10:50:18;;;;;;;;;;;;;;;28.70;18.09;93141.25;2058052;69;20133;-74
2023/04/09 10:52:43;;;;;;;;;;;;;;;28.29;18.14;93140.47;2058150;69;20057;-75
2023/04/09 10:55:28;;;;;;;;;;;;;;;30.46;17.48;93141.38;2058196;69;20050;-75
2023/04/09 10:57:54;;;;;;;;;;;;;;;31.45;17.22;93136.19;2058103;69;20054;-76
2023/04/09 11:00:20;;;;;;;;;;;;;;;31.12;16.29;93124.16;2058067;69;20056;-74
2023/04/09 11:03:06;;;;;;;;;;;;;;;30.54;16.37;93126.09;2057897;69;20141;-74
2023/04/09 11:05:33;;;;;;;;;;;;;;;26.86;16.26;93125.41;2056690;69;20052;-75
2023/04/09 11:08:06;;;;;;;;;;;;;;;32.73;15.28;93133.81;2057069;69;20046;-75
2023/04/09 11:10:32;;;;;;;;;;;;;;;30.85;14.11;93130.22;2058534;69;20570;-74
2023/04/09 11:16:28;;;;;;;;;;;;;;;33.80;12.36;93141.41;2057975;69;20093;-75
2023/04/09 11:18:55;;;;;;;;;;;;;;;33.50;12.78;93131.06;2054480;69;20085;-76
2023/04/09 11:21:20;;;;;;;;;;;;;;;34.45;13.38;93130.56;2057819;69;20054;-75
2023/04/09 11:23:51;;;;;;;;;;;;;;;36.72;11.58;93134.78;2058009;69;20057;-75
2023/04/09 11:26:22;;;;;;;;;;;;;;;33.78;11.37;93139.25;2054674;69;20046;-75
2023/04/09 11:28:47;;;;;;;;;;;;;;;38.15;11.88;93130.66;2057900;69;20066;-75
2023/04/09 11:31:12;;;;;;;;;;;;;;;36.53;12.49;93131.72;2058007;69;20057;-76
2023/04/09 11:37:13;;;;;;;;;;;;;;;34.73;12.38;93115.31;2058542;69;20429;-76
2023/04/09 11:39:38;;;;;;;;;;;;;;;36.33;12.87;93115.41;2055153;69;20394;-74
2023/04/09 11:42:03;;;;;;;;;;;;;;;35.79;12.53;93111.88;2058441;69;20054;-77
2023/04/09 11:44:29;;;;;;;;;;;;;;;37.82;10.90;93121.59;2058529;69;20157;-79
2023/04/09 11:46:57;;;;;;;;;;;;;;;36.95;9.97;93119.44;2058524;69;20046;-75
2023/04/09 11:49:23;;;;;;;;;;;;;;;33.28;12.00;93121.22;2059624;69;20077;-75
2023/04/09 11:51:48;;;;;;;;;;;;;;;32.18;12.07;93104.75;2055298;69;20431;-75
2023/04/09 11:54:14;;;;;;;;;;;;;;;27.06;14.82;93099.53;2058634;69;20490;-75
2023/04/09 11:56:39;;;;;;;;;;;;;;;32.16;14.11;93099.66;2058485;69;20050;-77
2023/04/09 11:59:05;;;;;;;;;;;;;;;35.27;12.02;93103.72;2058514;69;20145;-75
2023/04/09 12:01:31;;;;;;;;;;;;;;;34.94;12.32;93103.13;2058336;69;20042;-77
2023/04/09 12:03:57;;;;;;;;;;;;;;;37.53;11.37;93107.94;2058396;69;20057;-77
2023/04/09 12:06:26;;;;;;;;;;;;;;;38.11;10.69;93116.13;2058427;69;20074;-76
2023/04/09 12:08:55;;;;;;;;;;;;;;;38.52;10.24;93116.81;2058390;69;20050;-77
2023/04/09 12:11:26;;;;;;;;;;;;;;;37.82;9.68;93106.91;2058344;69;20050;-76
2023/04/09 12:13:57;;;;;;;;;;;;;;;33.38;11.73;93111.56;2058453;69;20116;-77
2023/04/09 12:16:24;;;;;;;;;;;;;;;37.93;9.99;93107.28;2058283;69;20050;-75
2023/04/09 12:18:54;;;;;;;;;;;;;;;32.72;10.74;93100.31;2058232;69;20077;-80
2023/04/09 12:21:23;;;;;;;;;;;;;;;29.84;13.86;93100.38;2058272;69;20141;-76
2023/04/09 12:23:48;;;;;;;;;;;;;;;35.06;10.84;93108.69;2058410;69;20120;-76
2023/04/09 12:26:14;;;;;;;;;;;;;;;29.56;12.38;93091.84;2058360;69;20537;-77
2023/04/09 12:28:40;;;;;;;;;;;;;;;29.51;12.37;93090.38;2058247;69;20088;-74
2023/04/09 12:31:08;;;;;;;;;;;;;;;27.60;15.08;93094.72;2054947;69;20115;-74
2023/04/09 12:33:36;;;;;;;;;;;;;;;28.21;14.25;93083.28;2058307;69;20561;-74
2023/04/09 12:36:02;;;;;;;;;;;;;;;23.46;16.06;93084.97;2058331;69;20149;-76
2023/04/09 12:38:27;;;;;;;;;;;;;;;26.71;15.76;93077.66;2058351;69;20536;-76
2023/04/09 12:40:53;;;;;;;;;;;;;;;30.91;12.53;93085.13;2058912;69;20538;-75
2023/04/09 12:43:18;;;;;;;;;;;;;;;30.75;13.24;93088.91;2058579;69;20558;-77
2023/04/09 12:45:44;;;;;;;;;;;;;;;31.02;12.99;93084.28;2058223;69;20425;-77
2023/04/09 12:48:09;;;;;;;;;;;;;;;34.55;12.47;93096.00;2058249;69;20136;-77
2023/04/09 12:50:35;;;;;;;;;;;;;;;34.08;11.00;93094.13;2058350;69;20483;-77
2023/04/09 12:53:01;;;;;;;;;;;;;;;34.02;10.79;93088.41;2058248;69;20054;-76
2023/04/09 12:55:26;;;;;;;;;;;;;;;30.38;12.16;93080.47;2058285;69;20145;-76
2023/04/09 12:57:53;;;;;;;;;;;;;;;33.14;11.25;93075.53;2057423;69;20068;-75
2023/04/09 13:00:19;;;;;;;;;;;;;;;36.09;10.06;93075.13;2059297;69;20087;-75
2023/04/09 13:02:45;;;;;;;;;;;;;;;36.80;11.43;93078.81;2058317;69;20061;-77
2023/04/09 13:05:10;;;;;;;;;;;;;;;36.99;9.99;93073.06;2058213;69;20073;-74
2023/04/09 13:07:36;;;;;;;;;;;;;;;36.71;10.45;93071.06;2058205;69;20089;-76
2023/04/09 13:10:01;;;;;;;;;;;;;;;31.99;11.55;93067.16;2054982;69;20394;-75
2023/04/09 13:12:27;;;;;;;;;;;;;;;33.27;11.03;93067.28;2053929;69;20862;-74
2023/04/09 13:14:53;;;;;;;;;;;;;;;38.47;8.91;93075.09;2057764;69;20101;-79
2023/04/09 13:17:19;;;;;;;;;;;;;;;33.68;11.21;93071.59;2057833;69;20081;-76
2023/04/09 13:19:44;;;;;;;;;;;;;;;32.08;12.84;93032.84;2057797;69;20066;-79
2023/04/09 13:22:10;;;;;;;;;;;;;;;33.22;11.08;93056.44;2057687;69;20065;-77
2023/04/09 13:24:35;;;;;;;;;;;;;;;34.09;10.79;93063.44;2057339;69;20592;-79
2023/04/09 13:27:02;;;;;;;;;;;;;;;38.39;8.24;93060.72;2057915;69;20054;-76
2023/04/09 13:29:28;;;;;;;;;;;;;;;31.14;13.11;93045.63;2057970;69;20490;-74
2023/04/09 13:31:57;;;;;;;;;;;;;;;38.29;8.78;93058.84;2054804;69;20139;-76
2023/04/09 13:34:25;;;;;;;;;;;;;;;34.73;10.45;93051.00;2058315;69;20540;-74
2023/04/09 13:36:50;;;;;;;;;;;;;;;33.49;10.82;93054.47;2054927;69;20057;-76
2023/04/09 13:39:16;;;;;;;;;;;;;;;31.85;12.51;93041.88;2058356;69;20054;-74
2023/04/09 13:41:41;;;;;;;;;;;;;;;25.69;15.94;93040.00;2054910;69;20054;-77
2023/04/09 13:44:10;;;;;;;;;;;;;;;30.95;12.76;93042.22;2058156;69;20053;-76
2023/04/09 13:46:36;;;;;;;;;;;;;;;35.92;10.58;93044.88;2057894;69;20054;-78
2023/04/09 13:49:02;;;;;;;;;;;;;;;35.64;10.32;93050.06;2058072;69;20050;-77
2023/04/09 13:51:28;;;;;;;;;;;;;;;33.38;10.89;93041.53;2058151;69;20077;-78
2023/04/09 13:57:23;;;;;;;;;;;;;;;29.95;12.07;93031.41;2058118;69;20069;-77
2023/04/09 13:59:48;;;;;;;;;;;;;;;35.78;10.55;93046.00;2054778;69;20066;-74
2023/04/09 14:02:14;;;;;;;;;;;;;;;38.24;9.09;93054.66;2058146;69;20151;-75
2023/04/09 14:04:39;;;;;;;;;;;;;;;39.19;9.17;93045.72;2058376;69;20061;-74
2023/04/09 14:07:05;;;;;;;;;;;;;;;34.72;9.98;93034.94;2055210;69;20145;-74
2023/04/09 14:09:30;;;;;;;;;;;;;;;34.42;9.48;93042.22;2058678;69;20421;-75
2023/04/09 14:11:56;;;;;;;;;;;;;;;31.49;11.48;93025.63;2058375;69;20422;-74
2023/04/09 14:14:21;;;;;;;;;;;;;;;32.44;10.79;93025.75;2055008;69;20050;-75
2023/04/09 14:16:47;;;;;;;;;;;;;;;38.10;8.71;93046.38;2058463;69;20049;-77
2023/04/09 14:19:13;;;;;;;;;;;;;;;34.92;10.02;93027.16;2058487;69;20657;-77
2023/04/09 14:21:39;;;;;;;;;;;;;;;36.97;9.96;93029.13;2059443;69;20081;-77
2023/04/09 14:24:05;;;;;;;;;;;;;;;27.70;13.29;93018.84;2059284;69;20564;-77